sensor_id;sensor_type;location;lat;lon;timestamp;P1;durP1;ratioP1;P2;durP2;ratioP2
84852;SDS011;75109;47.440;19.310;2024-01-10T00:00:01;43.63;;;42.33;;
84852;SDS011;75109;47.440;19.310;2024-01-10T00:00:33;44.53;;;43.13;;
84852;SDS011;75109;47.440;19.310;2024-01-10T00:01:05;47.23;;;45.37;;
84852;SDS011;75109;47.440;19.310;2024-01-10T00:01:37;47.23;;;45.33;;
84852;SDS011;75109;47.440;19.310;2024-01-10T00:02:09;48.63;;;46.87;;
84852;SDS011;75109;47.440;19.310;2024-01-10T00:02:43;48.37;;;46.67;;
84852;SDS011;75109;47.440;19.310;2024-01-10T00:03:15;49.90;;;47.67;;
84852;SDS011;75109;47.440;19.310;2024-01-10T00:03:47;50.40;;;47.90;;
84852;SDS011;75109;47.440;19.310;2024-01-10T00:04:19;48.63;;;46.70;;
84852;SDS011;75109;47.440;19.310;2024-01-10T00:04:51;48.00;;;46.00;;
84852;SDS011;75109;47.440;19.310;2024-01-10T00:05:23;49.33;;;47.27;;
84852;SDS011;75109;47.440;19.310;2024-01-10T00:05:55;46.70;;;45.13;;
84852;SDS011;75109;47.440;19.310;2024-01-10T00:06:27;48.50;;;46.60;;
84852;SDS011;75109;47.440;19.310;2024-01-10T00:07:00;50.27;;;48.53;;
84852;SDS011;75109;47.440;19.310;2024-01-10T00:07:32;48.70;;;47.23;;
84852;SDS011;75109;47.440;19.310;2024-01-10T00:08:04;47.23;;;45.80;;
84852;SDS011;75109;47.440;19.310;2024-01-10T00:08:37;47.07;;;45.20;;
84852;SDS011;75109;47.440;19.310;2024-01-10T00:09:10;47.60;;;45.50;;
84852;SDS011;75109;47.440;19.310;2024-01-10T00:09:42;46.80;;;44.57;;
84852;SDS011;75109;47.440;19.310;2024-01-10T00:10:14;48.17;;;46.27;;
84852;SDS011;75109;47.440;19.310;2024-01-10T00:10:46;49.47;;;47.50;;
84852;SDS011;75109;47.440;19.310;2024-01-10T00:11:18;47.87;;;46.03;;
84852;SDS011;75109;47.440;19.310;2024-01-10T00:11:51;49.27;;;47.27;;
84852;SDS011;75109;47.440;19.310;2024-01-10T00:12:23;50.77;;;48.63;;
84852;SDS011;75109;47.440;19.310;2024-01-10T00:12:55;52.10;;;49.77;;
84852;SDS011;75109;47.440;19.310;2024-01-10T00:13:27;53.20;;;50.93;;
84852;SDS011;75109;47.440;19.310;2024-01-10T00:13:59;56.30;;;54.13;;
84852;SDS011;75109;47.440;19.310;2024-01-10T00:14:31;55.87;;;53.50;;
84852;SDS011;75109;47.440;19.310;2024-01-10T00:15:04;54.23;;;51.63;;
84852;SDS011;75109;47.440;19.310;2024-01-10T00:15:37;53.20;;;51.03;;
84852;SDS011;75109;47.440;19.310;2024-01-10T00:16:11;51.33;;;49.57;;
84852;SDS011;75109;47.440;19.310;2024-01-10T00:16:43;52.90;;;50.67;;
84852;SDS011;75109;47.440;19.310;2024-01-10T00:17:15;53.90;;;51.63;;
84852;SDS011;75109;47.440;19.310;2024-01-10T00:17:49;53.87;;;51.83;;
84852;SDS011;75109;47.440;19.310;2024-01-10T00:18:21;51.77;;;49.73;;
84852;SDS011;75109;47.440;19.310;2024-01-10T00:18:53;51.00;;;48.77;;
84852;SDS011;75109;47.440;19.310;2024-01-10T00:19:26;46.87;;;45.03;;
84852;SDS011;75109;47.440;19.310;2024-01-10T00:19:58;46.93;;;45.27;;
84852;SDS011;75109;47.440;19.310;2024-01-10T00:20:30;45.67;;;44.17;;
84852;SDS011;75109;47.440;19.310;2024-01-10T00:21:02;45.13;;;43.73;;
84852;SDS011;75109;47.440;19.310;2024-01-10T00:21:34;44.97;;;43.80;;
84852;SDS011;75109;47.440;19.310;2024-01-10T00:22:07;46.73;;;45.17;;
84852;SDS011;75109;47.440;19.310;2024-01-10T00:22:39;45.37;;;43.57;;
84852;SDS011;75109;47.440;19.310;2024-01-10T00:23:12;44.90;;;43.10;;
84852;SDS011;75109;47.440;19.310;2024-01-10T00:23:44;44.17;;;42.57;;
84852;SDS011;75109;47.440;19.310;2024-01-10T00:24:16;45.97;;;44.17;;
84852;SDS011;75109;47.440;19.310;2024-01-10T00:24:49;47.53;;;45.40;;
84852;SDS011;75109;47.440;19.310;2024-01-10T00:25:21;49.03;;;47.10;;
84852;SDS011;75109;47.440;19.310;2024-01-10T00:25:53;49.40;;;47.50;;
84852;SDS011;75109;47.440;19.310;2024-01-10T00:26:25;51.30;;;49.37;;
84852;SDS011;75109;47.440;19.310;2024-01-10T00:26:57;52.37;;;50.50;;
84852;SDS011;75109;47.440;19.310;2024-01-10T00:27:29;50.50;;;48.70;;
84852;SDS011;75109;47.440;19.310;2024-01-10T00:28:02;50.33;;;48.43;;
84852;SDS011;75109;47.440;19.310;2024-01-10T00:28:34;51.40;;;48.93;;
84852;SDS011;75109;47.440;19.310;2024-01-10T00:29:06;51.30;;;49.10;;
84852;SDS011;75109;47.440;19.310;2024-01-10T00:29:39;49.97;;;47.70;;
84852;SDS011;75109;47.440;19.310;2024-01-10T00:30:11;50.37;;;48.10;;
84852;SDS011;75109;47.440;19.310;2024-01-10T00:30:43;48.07;;;46.20;;
84852;SDS011;75109;47.440;19.310;2024-01-10T00:31:15;48.37;;;46.50;;
84852;SDS011;75109;47.440;19.310;2024-01-10T00:31:48;47.33;;;45.43;;
84852;SDS011;75109;47.440;19.310;2024-01-10T00:32:20;49.73;;;47.30;;
84852;SDS011;75109;47.440;19.310;2024-01-10T00:32:53;50.67;;;48.40;;
84852;SDS011;75109;47.440;19.310;2024-01-10T00:33:25;50.73;;;48.47;;
84852;SDS011;75109;47.440;19.310;2024-01-10T00:33:57;49.63;;;47.83;;
84852;SDS011;75109;47.440;19.310;2024-01-10T00:34:29;48.27;;;46.63;;
84852;SDS011;75109;47.440;19.310;2024-01-10T00:35:02;49.17;;;47.43;;
84852;SDS011;75109;47.440;19.310;2024-01-10T00:35:34;49.00;;;46.93;;
84852;SDS011;75109;47.440;19.310;2024-01-10T00:36:06;48.73;;;47.03;;
84852;SDS011;75109;47.440;19.310;2024-01-10T00:36:39;48.80;;;47.03;;
84852;SDS011;75109;47.440;19.310;2024-01-10T00:37:11;46.87;;;45.07;;
84852;SDS011;75109;47.440;19.310;2024-01-10T00:37:43;48.23;;;45.83;;
84852;SDS011;75109;47.440;19.310;2024-01-10T00:38:15;48.63;;;46.00;;
84852;SDS011;75109;47.440;19.310;2024-01-10T00:38:47;49.13;;;46.83;;
84852;SDS011;75109;47.440;19.310;2024-01-10T00:39:19;47.53;;;45.60;;
84852;SDS011;75109;47.440;19.310;2024-01-10T00:39:51;48.27;;;46.60;;
84852;SDS011;75109;47.440;19.310;2024-01-10T00:40:23;48.83;;;47.03;;
84852;SDS011;75109;47.440;19.310;2024-01-10T00:40:55;47.33;;;45.73;;
84852;SDS011;75109;47.440;19.310;2024-01-10T00:41:28;46.10;;;44.40;;
84852;SDS011;75109;47.440;19.310;2024-01-10T00:42:00;46.53;;;44.77;;
84852;SDS011;75109;47.440;19.310;2024-01-10T00:42:32;47.20;;;45.77;;
84852;SDS011;75109;47.440;19.310;2024-01-10T00:43:04;46.17;;;44.63;;
84852;SDS011;75109;47.440;19.310;2024-01-10T00:43:36;47.27;;;45.27;;
84852;SDS011;75109;47.440;19.310;2024-01-10T00:44:08;48.77;;;46.63;;
84852;SDS011;75109;47.440;19.310;2024-01-10T00:44:41;49.53;;;47.20;;
84852;SDS011;75109;47.440;19.310;2024-01-10T00:45:13;48.53;;;46.33;;
84852;SDS011;75109;47.440;19.310;2024-01-10T00:45:45;46.10;;;44.43;;
84852;SDS011;75109;47.440;19.310;2024-01-10T00:46:17;48.30;;;46.43;;
84852;SDS011;75109;47.440;19.310;2024-01-10T00:46:49;48.17;;;46.17;;
84852;SDS011;75109;47.440;19.310;2024-01-10T00:47:21;48.50;;;46.43;;
84852;SDS011;75109;47.440;19.310;2024-01-10T00:47:55;48.93;;;46.83;;
84852;SDS011;75109;47.440;19.310;2024-01-10T00:48:27;50.70;;;48.50;;
84852;SDS011;75109;47.440;19.310;2024-01-10T00:48:59;54.70;;;52.23;;
84852;SDS011;75109;47.440;19.310;2024-01-10T00:49:31;58.83;;;55.87;;
84852;SDS011;75109;47.440;19.310;2024-01-10T00:50:03;68.50;;;65.07;;
84852;SDS011;75109;47.440;19.310;2024-01-10T00:50:36;74.87;;;70.93;;
84852;SDS011;75109;47.440;19.310;2024-01-10T00:51:10;73.80;;;70.27;;
84852;SDS011;75109;47.440;19.310;2024-01-10T00:51:43;73.27;;;69.93;;
84852;SDS011;75109;47.440;19.310;2024-01-10T00:52:17;69.40;;;65.83;;
84852;SDS011;75109;47.440;19.310;2024-01-10T00:52:51;66.87;;;63.47;;
84852;SDS011;75109;47.440;19.310;2024-01-10T00:53:24;66.47;;;63.87;;
84852;SDS011;75109;47.440;19.310;2024-01-10T00:53:57;66.97;;;63.97;;
84852;SDS011;75109;47.440;19.310;2024-01-10T00:54:50;70.07;;;66.03;;
84852;SDS011;75109;47.440;19.310;2024-01-10T00:55:24;67.80;;;64.23;;
84852;SDS011;75109;47.440;19.310;2024-01-10T00:55:57;67.80;;;65.00;;
84852;SDS011;75109;47.440;19.310;2024-01-10T00:56:30;67.27;;;64.10;;
84852;SDS011;75109;47.440;19.310;2024-01-10T00:57:03;63.43;;;60.73;;
84852;SDS011;75109;47.440;19.310;2024-01-10T00:57:37;60.20;;;58.00;;
84852;SDS011;75109;47.440;19.310;2024-01-10T00:58:11;59.07;;;56.97;;
84852;SDS011;75109;47.440;19.310;2024-01-10T00:58:45;58.27;;;56.00;;
84852;SDS011;75109;47.440;19.310;2024-01-10T00:59:18;55.43;;;53.30;;
84852;SDS011;75109;47.440;19.310;2024-01-10T00:59:51;59.50;;;56.90;;
84852;SDS011;75109;47.440;19.310;2024-01-10T01:00:24;61.43;;;58.77;;
84852;SDS011;75109;47.440;19.310;2024-01-10T01:00:58;71.20;;;68.33;;
84852;SDS011;75109;47.440;19.310;2024-01-10T01:01:31;76.90;;;74.17;;
84852;SDS011;75109;47.440;19.310;2024-01-10T01:02:04;90.20;;;86.50;;
84852;SDS011;75109;47.440;19.310;2024-01-10T01:02:37;103.27;;;98.87;;
84852;SDS011;75109;47.440;19.310;2024-01-10T01:03:15;117.67;;;112.37;;
84852;SDS011;75109;47.440;19.310;2024-01-10T01:03:48;117.00;;;112.20;;
84852;SDS011;75109;47.440;19.310;2024-01-10T01:04:21;98.10;;;93.40;;
84852;SDS011;75109;47.440;19.310;2024-01-10T01:04:54;77.17;;;73.70;;
84852;SDS011;75109;47.440;19.310;2024-01-10T01:05:27;69.73;;;66.77;;
84852;SDS011;75109;47.440;19.310;2024-01-10T01:06:01;66.70;;;63.57;;
84852;SDS011;75109;47.440;19.310;2024-01-10T01:06:35;57.73;;;55.20;;
84852;SDS011;75109;47.440;19.310;2024-01-10T01:07:08;56.13;;;53.87;;
84852;SDS011;75109;47.440;19.310;2024-01-10T01:07:41;55.87;;;53.27;;
84852;SDS011;75109;47.440;19.310;2024-01-10T01:08:15;54.10;;;51.40;;
84852;SDS011;75109;47.440;19.310;2024-01-10T01:08:48;57.00;;;54.27;;
84852;SDS011;75109;47.440;19.310;2024-01-10T01:09:21;61.20;;;58.60;;
84852;SDS011;75109;47.440;19.310;2024-01-10T01:09:54;61.60;;;58.90;;
84852;SDS011;75109;47.440;19.310;2024-01-10T01:10:27;62.30;;;59.80;;
84852;SDS011;75109;47.440;19.310;2024-01-10T01:11:00;64.87;;;62.47;;
84852;SDS011;75109;47.440;19.310;2024-01-10T01:11:33;66.13;;;63.87;;
84852;SDS011;75109;47.440;19.310;2024-01-10T01:12:06;71.27;;;68.73;;
84852;SDS011;75109;47.440;19.310;2024-01-10T01:12:40;73.93;;;70.80;;
84852;SDS011;75109;47.440;19.310;2024-01-10T01:13:13;70.83;;;67.83;;
84852;SDS011;75109;47.440;19.310;2024-01-10T01:13:46;69.37;;;66.67;;
84852;SDS011;75109;47.440;19.310;2024-01-10T01:14:19;71.60;;;68.37;;
84852;SDS011;75109;47.440;19.310;2024-01-10T01:14:52;69.73;;;66.43;;
84852;SDS011;75109;47.440;19.310;2024-01-10T01:15:25;65.53;;;62.87;;
84852;SDS011;75109;47.440;19.310;2024-01-10T01:15:59;67.13;;;64.33;;
84852;SDS011;75109;47.440;19.310;2024-01-10T01:16:32;63.63;;;61.20;;
84852;SDS011;75109;47.440;19.310;2024-01-10T01:17:05;59.80;;;57.80;;
84852;SDS011;75109;47.440;19.310;2024-01-10T01:17:38;57.53;;;55.23;;
84852;SDS011;75109;47.440;19.310;2024-01-10T01:18:11;57.23;;;54.50;;
84852;SDS011;75109;47.440;19.310;2024-01-10T01:18:46;57.13;;;54.60;;
84852;SDS011;75109;47.440;19.310;2024-01-10T01:19:19;54.97;;;52.90;;
84852;SDS011;75109;47.440;19.310;2024-01-10T01:19:52;51.13;;;49.53;;
84852;SDS011;75109;47.440;19.310;2024-01-10T01:20:25;51.80;;;50.30;;
84852;SDS011;75109;47.440;19.310;2024-01-10T01:21:00;52.67;;;50.93;;
84852;SDS011;75109;47.440;19.310;2024-01-10T01:21:34;55.17;;;53.13;;
84852;SDS011;75109;47.440;19.310;2024-01-10T01:22:07;51.73;;;49.70;;
84852;SDS011;75109;47.440;19.310;2024-01-10T01:22:40;52.13;;;50.23;;
84852;SDS011;75109;47.440;19.310;2024-01-10T01:23:13;49.57;;;47.77;;
84852;SDS011;75109;47.440;19.310;2024-01-10T01:23:49;50.37;;;48.60;;
84852;SDS011;75109;47.440;19.310;2024-01-10T01:24:21;50.90;;;49.13;;
84852;SDS011;75109;47.440;19.310;2024-01-10T01:24:53;50.40;;;48.37;;
84852;SDS011;75109;47.440;19.310;2024-01-10T01:25:25;50.73;;;48.47;;
84852;SDS011;75109;47.440;19.310;2024-01-10T01:25:57;48.03;;;46.13;;
84852;SDS011;75109;47.440;19.310;2024-01-10T01:26:30;46.73;;;45.07;;
84852;SDS011;75109;47.440;19.310;2024-01-10T01:27:03;47.53;;;45.63;;
84852;SDS011;75109;47.440;19.310;2024-01-10T01:27:35;45.70;;;43.70;;
84852;SDS011;75109;47.440;19.310;2024-01-10T01:28:07;44.93;;;43.17;;
84852;SDS011;75109;47.440;19.310;2024-01-10T01:28:39;44.40;;;42.83;;
84852;SDS011;75109;47.440;19.310;2024-01-10T01:29:11;44.40;;;42.93;;
84852;SDS011;75109;47.440;19.310;2024-01-10T01:29:43;42.13;;;40.83;;
84852;SDS011;75109;47.440;19.310;2024-01-10T01:30:16;41.40;;;40.00;;
84852;SDS011;75109;47.440;19.310;2024-01-10T01:30:48;43.20;;;41.83;;
84852;SDS011;75109;47.440;19.310;2024-01-10T01:31:20;41.97;;;40.67;;
84852;SDS011;75109;47.440;19.310;2024-01-10T01:31:52;42.57;;;41.47;;
84852;SDS011;75109;47.440;19.310;2024-01-10T01:32:25;42.87;;;41.87;;
84852;SDS011;75109;47.440;19.310;2024-01-10T01:32:57;44.70;;;43.43;;
84852;SDS011;75109;47.440;19.310;2024-01-10T01:33:29;43.93;;;42.53;;
84852;SDS011;75109;47.440;19.310;2024-01-10T01:34:03;42.70;;;41.17;;
84852;SDS011;75109;47.440;19.310;2024-01-10T01:34:36;42.80;;;41.40;;
84852;SDS011;75109;47.440;19.310;2024-01-10T01:35:09;42.93;;;41.73;;
84852;SDS011;75109;47.440;19.310;2024-01-10T01:35:43;42.70;;;41.30;;
84852;SDS011;75109;47.440;19.310;2024-01-10T01:36:16;43.50;;;42.30;;
84852;SDS011;75109;47.440;19.310;2024-01-10T01:36:49;42.87;;;41.70;;
84852;SDS011;75109;47.440;19.310;2024-01-10T01:37:23;43.10;;;41.77;;
84852;SDS011;75109;47.440;19.310;2024-01-10T01:37:56;42.87;;;41.43;;
84852;SDS011;75109;47.440;19.310;2024-01-10T01:38:29;44.17;;;42.40;;
84852;SDS011;75109;47.440;19.310;2024-01-10T01:39:02;43.87;;;42.03;;
84852;SDS011;75109;47.440;19.310;2024-01-10T01:39:35;43.03;;;41.23;;
84852;SDS011;75109;47.440;19.310;2024-01-10T01:40:08;45.37;;;43.67;;
84852;SDS011;75109;47.440;19.310;2024-01-10T01:40:42;45.47;;;43.67;;
84852;SDS011;75109;47.440;19.310;2024-01-10T01:41:15;43.93;;;42.57;;
84852;SDS011;75109;47.440;19.310;2024-01-10T01:41:49;45.27;;;43.83;;
84852;SDS011;75109;47.440;19.310;2024-01-10T01:42:22;45.67;;;44.00;;
84852;SDS011;75109;47.440;19.310;2024-01-10T01:42:56;46.43;;;44.90;;
84852;SDS011;75109;47.440;19.310;2024-01-10T01:43:29;45.00;;;43.33;;
84852;SDS011;75109;47.440;19.310;2024-01-10T01:44:02;44.80;;;43.13;;
84852;SDS011;75109;47.440;19.310;2024-01-10T01:44:35;45.70;;;43.83;;
84852;SDS011;75109;47.440;19.310;2024-01-10T01:45:08;46.23;;;44.50;;
84852;SDS011;75109;47.440;19.310;2024-01-10T01:45:42;45.83;;;44.23;;
84852;SDS011;75109;47.440;19.310;2024-01-10T01:46:15;48.03;;;45.83;;
84852;SDS011;75109;47.440;19.310;2024-01-10T01:46:48;48.37;;;46.13;;
84852;SDS011;75109;47.440;19.310;2024-01-10T01:47:22;48.23;;;46.10;;
84852;SDS011;75109;47.440;19.310;2024-01-10T01:47:55;47.83;;;45.47;;
84852;SDS011;75109;47.440;19.310;2024-01-10T01:48:29;49.27;;;46.93;;
84852;SDS011;75109;47.440;19.310;2024-01-10T01:49:04;49.03;;;46.87;;
84852;SDS011;75109;47.440;19.310;2024-01-10T01:49:37;47.83;;;45.63;;
84852;SDS011;75109;47.440;19.310;2024-01-10T01:50:10;49.30;;;47.40;;
84852;SDS011;75109;47.440;19.310;2024-01-10T01:50:44;47.67;;;45.93;;
84852;SDS011;75109;47.440;19.310;2024-01-10T01:51:17;48.27;;;46.10;;
84852;SDS011;75109;47.440;19.310;2024-01-10T01:51:55;48.10;;;45.90;;
84852;SDS011;75109;47.440;19.310;2024-01-10T01:52:29;47.70;;;45.63;;
84852;SDS011;75109;47.440;19.310;2024-01-10T01:53:03;47.03;;;45.40;;
84852;SDS011;75109;47.440;19.310;2024-01-10T01:53:36;47.73;;;46.30;;
84852;SDS011;75109;47.440;19.310;2024-01-10T01:54:11;48.80;;;46.77;;
84852;SDS011;75109;47.440;19.310;2024-01-10T01:54:44;49.90;;;47.33;;
84852;SDS011;75109;47.440;19.310;2024-01-10T01:55:19;48.17;;;45.83;;
84852;SDS011;75109;47.440;19.310;2024-01-10T01:55:52;47.73;;;45.93;;
84852;SDS011;75109;47.440;19.310;2024-01-10T01:56:25;46.30;;;44.93;;
84852;SDS011;75109;47.440;19.310;2024-01-10T01:56:58;46.13;;;44.60;;
84852;SDS011;75109;47.440;19.310;2024-01-10T01:57:30;46.87;;;45.03;;
84852;SDS011;75109;47.440;19.310;2024-01-10T01:58:03;46.23;;;44.07;;
84852;SDS011;75109;47.440;19.310;2024-01-10T01:58:35;45.07;;;43.37;;
84852;SDS011;75109;47.440;19.310;2024-01-10T01:59:09;44.63;;;43.13;;
84852;SDS011;75109;47.440;19.310;2024-01-10T01:59:41;44.93;;;43.50;;
84852;SDS011;75109;47.440;19.310;2024-01-10T02:00:14;47.43;;;45.40;;
84852;SDS011;75109;47.440;19.310;2024-01-10T02:00:46;48.53;;;46.47;;
84852;SDS011;75109;47.440;19.310;2024-01-10T02:01:18;47.83;;;46.07;;
84852;SDS011;75109;47.440;19.310;2024-01-10T02:01:54;46.57;;;44.80;;
84852;SDS011;75109;47.440;19.310;2024-01-10T02:02:30;43.77;;;42.23;;
84852;SDS011;75109;47.440;19.310;2024-01-10T02:03:03;44.40;;;43.00;;
84852;SDS011;75109;47.440;19.310;2024-01-10T02:03:37;44.93;;;43.67;;
84852;SDS011;75109;47.440;19.310;2024-01-10T02:04:11;44.80;;;43.47;;
84852;SDS011;75109;47.440;19.310;2024-01-10T02:04:43;46.23;;;44.47;;
84852;SDS011;75109;47.440;19.310;2024-01-10T02:05:18;43.90;;;42.07;;
84852;SDS011;75109;47.440;19.310;2024-01-10T02:05:50;44.30;;;42.37;;
84852;SDS011;75109;47.440;19.310;2024-01-10T02:06:22;44.60;;;42.83;;
84852;SDS011;75109;47.440;19.310;2024-01-10T02:06:55;44.30;;;42.80;;
84852;SDS011;75109;47.440;19.310;2024-01-10T02:07:27;44.23;;;42.53;;
84852;SDS011;75109;47.440;19.310;2024-01-10T02:07:59;43.43;;;41.67;;
84852;SDS011;75109;47.440;19.310;2024-01-10T02:08:31;44.27;;;42.23;;
84852;SDS011;75109;47.440;19.310;2024-01-10T02:09:03;42.87;;;41.07;;
84852;SDS011;75109;47.440;19.310;2024-01-10T02:09:36;42.33;;;40.57;;
84852;SDS011;75109;47.440;19.310;2024-01-10T02:10:08;43.13;;;41.47;;
84852;SDS011;75109;47.440;19.310;2024-01-10T02:10:40;42.73;;;41.17;;
84852;SDS011;75109;47.440;19.310;2024-01-10T02:11:15;42.20;;;40.33;;
84852;SDS011;75109;47.440;19.310;2024-01-10T02:11:47;42.43;;;40.00;;
84852;SDS011;75109;47.440;19.310;2024-01-10T02:12:20;41.63;;;39.83;;
84852;SDS011;75109;47.440;19.310;2024-01-10T02:12:52;41.27;;;39.93;;
84852;SDS011;75109;47.440;19.310;2024-01-10T02:13:25;41.90;;;40.40;;
84852;SDS011;75109;47.440;19.310;2024-01-10T02:13:57;41.93;;;40.37;;
84852;SDS011;75109;47.440;19.310;2024-01-10T02:14:29;41.00;;;39.60;;
84852;SDS011;75109;47.440;19.310;2024-01-10T02:15:02;41.33;;;39.57;;
84852;SDS011;75109;47.440;19.310;2024-01-10T02:15:35;42.77;;;40.83;;
84852;SDS011;75109;47.440;19.310;2024-01-10T02:16:07;42.13;;;40.20;;
84852;SDS011;75109;47.440;19.310;2024-01-10T02:16:41;40.83;;;39.07;;
84852;SDS011;75109;47.440;19.310;2024-01-10T02:17:13;41.37;;;39.83;;
84852;SDS011;75109;47.440;19.310;2024-01-10T02:17:46;40.20;;;38.77;;
84852;SDS011;75109;47.440;19.310;2024-01-10T02:18:18;39.37;;;38.07;;
84852;SDS011;75109;47.440;19.310;2024-01-10T02:18:50;39.60;;;38.00;;
84852;SDS011;75109;47.440;19.310;2024-01-10T02:19:23;41.50;;;39.93;;
84852;SDS011;75109;47.440;19.310;2024-01-10T02:20:07;42.37;;;40.93;;
84852;SDS011;75109;47.440;19.310;2024-01-10T02:20:42;40.60;;;39.00;;
84852;SDS011;75109;47.440;19.310;2024-01-10T02:21:15;41.13;;;39.43;;
84852;SDS011;75109;47.440;19.310;2024-01-10T02:21:47;40.57;;;38.90;;
84852;SDS011;75109;47.440;19.310;2024-01-10T02:22:19;42.17;;;40.63;;
84852;SDS011;75109;47.440;19.310;2024-01-10T02:22:51;41.97;;;40.33;;
84852;SDS011;75109;47.440;19.310;2024-01-10T02:23:23;40.03;;;38.53;;
84852;SDS011;75109;47.440;19.310;2024-01-10T02:23:55;40.00;;;38.63;;
84852;SDS011;75109;47.440;19.310;2024-01-10T02:24:27;41.93;;;40.30;;
84852;SDS011;75109;47.440;19.310;2024-01-10T02:25:01;41.40;;;40.07;;
84852;SDS011;75109;47.440;19.310;2024-01-10T02:25:34;41.73;;;40.33;;
84852;SDS011;75109;47.440;19.310;2024-01-10T02:26:06;42.20;;;40.60;;
84852;SDS011;75109;47.440;19.310;2024-01-10T02:26:39;42.27;;;40.43;;
84852;SDS011;75109;47.440;19.310;2024-01-10T02:27:11;41.20;;;39.70;;
84852;SDS011;75109;47.440;19.310;2024-01-10T02:27:43;41.33;;;40.33;;
84852;SDS011;75109;47.440;19.310;2024-01-10T02:28:15;40.87;;;39.63;;
84852;SDS011;75109;47.440;19.310;2024-01-10T02:28:47;40.83;;;39.70;;
84852;SDS011;75109;47.440;19.310;2024-01-10T02:29:19;41.93;;;40.87;;
84852;SDS011;75109;47.440;19.310;2024-01-10T02:29:52;41.33;;;40.17;;
84852;SDS011;75109;47.440;19.310;2024-01-10T02:30:26;39.93;;;38.63;;
84852;SDS011;75109;47.440;19.310;2024-01-10T02:30:58;42.10;;;40.57;;
84852;SDS011;75109;47.440;19.310;2024-01-10T02:31:31;42.53;;;40.77;;
84852;SDS011;75109;47.440;19.310;2024-01-10T02:32:04;41.43;;;39.97;;
84852;SDS011;75109;47.440;19.310;2024-01-10T02:32:36;40.50;;;39.30;;
84852;SDS011;75109;47.440;19.310;2024-01-10T02:33:08;40.97;;;39.73;;
84852;SDS011;75109;47.440;19.310;2024-01-10T02:33:41;41.33;;;39.67;;
84852;SDS011;75109;47.440;19.310;2024-01-10T02:34:13;41.57;;;39.67;;
84852;SDS011;75109;47.440;19.310;2024-01-10T02:34:45;43.57;;;42.17;;
84852;SDS011;75109;47.440;19.310;2024-01-10T02:35:17;42.00;;;41.07;;
84852;SDS011;75109;47.440;19.310;2024-01-10T02:35:49;41.87;;;40.60;;
84852;SDS011;75109;47.440;19.310;2024-01-10T02:36:21;42.43;;;40.93;;
84852;SDS011;75109;47.440;19.310;2024-01-10T02:36:53;40.97;;;39.57;;
84852;SDS011;75109;47.440;19.310;2024-01-10T02:37:25;41.67;;;40.07;;
84852;SDS011;75109;47.440;19.310;2024-01-10T02:37:58;41.33;;;39.90;;
84852;SDS011;75109;47.440;19.310;2024-01-10T02:38:30;41.70;;;40.60;;
84852;SDS011;75109;47.440;19.310;2024-01-10T02:39:02;40.60;;;39.33;;
84852;SDS011;75109;47.440;19.310;2024-01-10T02:39:34;40.43;;;39.10;;
84852;SDS011;75109;47.440;19.310;2024-01-10T02:40:09;41.07;;;39.80;;
84852;SDS011;75109;47.440;19.310;2024-01-10T02:40:41;41.47;;;40.07;;
84852;SDS011;75109;47.440;19.310;2024-01-10T02:41:13;40.43;;;39.10;;
84852;SDS011;75109;47.440;19.310;2024-01-10T02:41:46;40.13;;;39.03;;
84852;SDS011;75109;47.440;19.310;2024-01-10T02:42:18;41.77;;;40.30;;
84852;SDS011;75109;47.440;19.310;2024-01-10T02:42:50;41.43;;;40.10;;
84852;SDS011;75109;47.440;19.310;2024-01-10T02:43:25;42.83;;;41.27;;
84852;SDS011;75109;47.440;19.310;2024-01-10T02:43:57;43.33;;;41.80;;
84852;SDS011;75109;47.440;19.310;2024-01-10T02:44:30;41.73;;;40.60;;
84852;SDS011;75109;47.440;19.310;2024-01-10T02:45:02;43.00;;;41.73;;
84852;SDS011;75109;47.440;19.310;2024-01-10T02:45:35;42.23;;;41.07;;
84852;SDS011;75109;47.440;19.310;2024-01-10T02:46:07;40.97;;;39.63;;
84852;SDS011;75109;47.440;19.310;2024-01-10T02:46:39;42.07;;;40.67;;
84852;SDS011;75109;47.440;19.310;2024-01-10T02:47:11;39.77;;;38.47;;
84852;SDS011;75109;47.440;19.310;2024-01-10T02:47:44;40.40;;;38.83;;
84852;SDS011;75109;47.440;19.310;2024-01-10T02:48:16;42.07;;;40.27;;
84852;SDS011;75109;47.440;19.310;2024-01-10T02:48:49;40.87;;;39.20;;
84852;SDS011;75109;47.440;19.310;2024-01-10T02:49:21;42.57;;;41.07;;
84852;SDS011;75109;47.440;19.310;2024-01-10T02:49:53;41.33;;;40.13;;
84852;SDS011;75109;47.440;19.310;2024-01-10T02:50:25;40.97;;;39.63;;
84852;SDS011;75109;47.440;19.310;2024-01-10T02:50:57;39.60;;;38.43;;
84852;SDS011;75109;47.440;19.310;2024-01-10T02:51:31;40.60;;;39.33;;
84852;SDS011;75109;47.440;19.310;2024-01-10T02:52:03;40.30;;;39.00;;
84852;SDS011;75109;47.440;19.310;2024-01-10T02:52:35;41.50;;;40.23;;
84852;SDS011;75109;47.440;19.310;2024-01-10T02:53:07;41.70;;;40.30;;
84852;SDS011;75109;47.440;19.310;2024-01-10T02:53:40;42.70;;;41.37;;
84852;SDS011;75109;47.440;19.310;2024-01-10T02:54:12;41.50;;;40.20;;
84852;SDS011;75109;47.440;19.310;2024-01-10T02:54:44;42.37;;;40.93;;
84852;SDS011;75109;47.440;19.310;2024-01-10T02:55:17;43.57;;;41.80;;
84852;SDS011;75109;47.440;19.310;2024-01-10T02:55:49;42.73;;;40.80;;
84852;SDS011;75109;47.440;19.310;2024-01-10T02:56:22;42.70;;;41.37;;
84852;SDS011;75109;47.440;19.310;2024-01-10T02:56:54;43.03;;;41.47;;
84852;SDS011;75109;47.440;19.310;2024-01-10T02:57:26;43.10;;;41.57;;
84852;SDS011;75109;47.440;19.310;2024-01-10T02:57:58;42.97;;;41.57;;
84852;SDS011;75109;47.440;19.310;2024-01-10T02:58:30;44.20;;;42.90;;
84852;SDS011;75109;47.440;19.310;2024-01-10T02:59:03;42.87;;;41.50;;
84852;SDS011;75109;47.440;19.310;2024-01-10T02:59:35;42.43;;;41.27;;
84852;SDS011;75109;47.440;19.310;2024-01-10T03:00:07;42.40;;;41.03;;
84852;SDS011;75109;47.440;19.310;2024-01-10T03:00:40;43.30;;;41.80;;
84852;SDS011;75109;47.440;19.310;2024-01-10T03:01:13;43.23;;;41.80;;
84852;SDS011;75109;47.440;19.310;2024-01-10T03:01:46;45.57;;;43.87;;
84852;SDS011;75109;47.440;19.310;2024-01-10T03:02:18;46.47;;;44.47;;
84852;SDS011;75109;47.440;19.310;2024-01-10T03:02:50;45.67;;;44.03;;
84852;SDS011;75109;47.440;19.310;2024-01-10T03:03:22;46.57;;;45.00;;
84852;SDS011;75109;47.440;19.310;2024-01-10T03:03:55;45.93;;;44.43;;
84852;SDS011;75109;47.440;19.310;2024-01-10T03:04:27;47.13;;;45.73;;
84852;SDS011;75109;47.440;19.310;2024-01-10T03:04:59;48.07;;;46.13;;
84852;SDS011;75109;47.440;19.310;2024-01-10T03:05:31;49.20;;;47.50;;
84852;SDS011;75109;47.440;19.310;2024-01-10T03:06:03;49.97;;;48.37;;
84852;SDS011;75109;47.440;19.310;2024-01-10T03:06:36;51.53;;;49.73;;
84852;SDS011;75109;47.440;19.310;2024-01-10T03:07:08;53.17;;;50.77;;
84852;SDS011;75109;47.440;19.310;2024-01-10T03:07:40;52.90;;;50.80;;
84852;SDS011;75109;47.440;19.310;2024-01-10T03:08:12;52.83;;;51.03;;
84852;SDS011;75109;47.440;19.310;2024-01-10T03:08:45;51.67;;;50.03;;